createdAt,value
2018-06-09T13:25:40.000Z,12.00
2018-06-09T13:33:49.000Z,8.50
2018-06-09T13:33:59.000Z,8.30
2018-06-09T13:34:09.000Z,8.20
2018-06-09T13:34:19.000Z,7.70
2018-06-09T13:34:29.000Z,6.70
2018-06-09T13:34:39.000Z,7.00
2018-06-09T13:34:49.000Z,6.80
2018-06-09T13:34:59.000Z,6.90
2018-06-09T13:35:09.000Z,7.40
2018-06-09T13:35:19.000Z,7.80
2018-06-09T13:35:29.000Z,8.00
2018-06-09T13:35:39.000Z,8.40
2018-06-09T13:35:49.000Z,8.60
2018-06-09T13:35:59.000Z,8.60
2018-06-09T13:36:09.000Z,8.60
2018-06-09T13:36:19.000Z,8.00
2018-06-09T13:36:29.000Z,8.10
2018-06-09T13:36:39.000Z,7.90
2018-06-09T13:36:52.000Z,8.00
2018-06-09T13:37:02.000Z,7.80
2018-06-09T13:37:12.000Z,7.80
2018-06-09T13:37:22.000Z,7.40
2018-06-09T13:37:32.000Z,7.20
2018-06-09T13:37:42.000Z,7.40
2018-06-09T13:37:52.000Z,7.50
2018-06-09T13:38:02.000Z,7.70
2018-06-09T13:38:12.000Z,7.80
2018-06-09T13:38:22.000Z,7.90
2018-06-09T13:38:32.000Z,8.00
2018-06-09T13:38:42.000Z,7.70
2018-06-09T13:38:52.000Z,7.90
2018-06-09T13:39:02.000Z,7.90
2018-06-09T13:39:12.000Z,7.70
2018-06-09T13:39:22.000Z,8.00
2018-06-09T13:39:32.000Z,8.40
2018-06-09T13:39:42.000Z,8.30
2018-06-09T13:39:52.000Z,8.70
2018-06-09T13:40:02.000Z,8.90
2018-06-09T13:40:12.000Z,20.80
2018-06-09T13:40:22.000Z,20.10
2018-06-09T13:40:32.000Z,20.40
2018-06-09T13:40:42.000Z,21.10
2018-06-09T13:40:52.000Z,20.30
2018-06-09T13:41:02.000Z,21.70
2018-06-09T13:41:12.000Z,10.30
2018-06-09T13:41:22.000Z,9.80
2018-06-09T13:41:32.000Z,9.20
2018-06-09T13:41:42.000Z,8.80
2018-06-09T13:41:52.000Z,9.00
2018-06-09T13:42:02.000Z,8.20
2018-06-09T13:42:12.000Z,7.80
2018-06-09T13:42:22.000Z,7.90
2018-06-09T13:42:32.000Z,7.90
2018-06-09T13:42:42.000Z,7.90
2018-06-09T13:42:52.000Z,7.80
2018-06-09T13:43:02.000Z,8.00
2018-06-09T13:43:12.000Z,8.40
